sensor_id;sensor_type;location;lat;lon;timestamp;P1;durP1;ratioP1;P2;durP2;ratioP2
61638;SDS011;47544;52.484;4.658;2023-05-10T00:00:06;22.42;;;16.90;;
61638;SDS011;47544;52.484;4.658;2023-05-10T00:00:17;22.27;;;16.88;;
61638;SDS011;47544;52.484;4.658;2023-05-10T00:00:28;21.92;;;17.00;;
61638;SDS011;47544;52.484;4.658;2023-05-10T00:00:41;21.73;;;17.15;;
61638;SDS011;47544;52.484;4.658;2023-05-10T00:00:52;21.95;;;17.10;;
61638;SDS011;47544;52.484;4.658;2023-05-10T00:01:04;21.80;;;16.77;;
61638;SDS011;47544;52.484;4.658;2023-05-10T00:01:15;19.23;;;16.15;;
61638;SDS011;47544;52.484;4.658;2023-05-10T00:01:26;18.83;;;16.23;;
61638;SDS011;47544;52.484;4.658;2023-05-10T00:01:37;19.48;;;17.10;;
61638;SDS011;47544;52.484;4.658;2023-05-10T00:01:48;21.58;;;18.17;;
61638;SDS011;47544;52.484;4.658;2023-05-10T00:01:59;22.83;;;17.93;;
61638;SDS011;47544;52.484;4.658;2023-05-10T00:02:10;23.02;;;17.35;;
61638;SDS011;47544;52.484;4.658;2023-05-10T00:02:21;22.45;;;16.63;;
61638;SDS011;47544;52.484;4.658;2023-05-10T00:02:33;22.55;;;17.02;;
61638;SDS011;47544;52.484;4.658;2023-05-10T00:02:44;22.20;;;17.30;;
61638;SDS011;47544;52.484;4.658;2023-05-10T00:02:55;23.83;;;17.63;;
61638;SDS011;47544;52.484;4.658;2023-05-10T00:03:06;23.17;;;17.75;;
61638;SDS011;47544;52.484;4.658;2023-05-10T00:03:20;21.40;;;17.65;;
61638;SDS011;47544;52.484;4.658;2023-05-10T00:03:30;20.30;;;17.52;;
61638;SDS011;47544;52.484;4.658;2023-05-10T00:03:41;19.23;;;17.02;;
61638;SDS011;47544;52.484;4.658;2023-05-10T00:03:54;19.38;;;16.60;;
61638;SDS011;47544;52.484;4.658;2023-05-10T00:04:04;19.80;;;16.48;;
61638;SDS011;47544;52.484;4.658;2023-05-10T00:04:15;20.20;;;16.38;;
61638;SDS011;47544;52.484;4.658;2023-05-10T00:04:26;19.30;;;16.33;;
61638;SDS011;47544;52.484;4.658;2023-05-10T00:04:38;19.25;;;16.25;;
61638;SDS011;47544;52.484;4.658;2023-05-10T00:04:48;19.48;;;16.58;;
61638;SDS011;47544;52.484;4.658;2023-05-10T00:04:59;20.60;;;16.90;;
61638;SDS011;47544;52.484;4.658;2023-05-10T00:05:11;21.00;;;17.70;;
61638;SDS011;47544;52.484;4.658;2023-05-10T00:05:22;21.40;;;18.63;;
61638;SDS011;47544;52.484;4.658;2023-05-10T00:05:33;22.42;;;18.85;;
61638;SDS011;47544;52.484;4.658;2023-05-10T00:05:44;22.90;;;18.98;;
61638;SDS011;47544;52.484;4.658;2023-05-10T00:05:55;23.30;;;19.03;;
61638;SDS011;47544;52.484;4.658;2023-05-10T00:06:06;22.98;;;18.85;;
61638;SDS011;47544;52.484;4.658;2023-05-10T00:06:17;22.45;;;18.08;;
61638;SDS011;47544;52.484;4.658;2023-05-10T00:06:28;20.63;;;17.80;;
61638;SDS011;47544;52.484;4.658;2023-05-10T00:06:39;19.30;;;16.60;;
61638;SDS011;47544;52.484;4.658;2023-05-10T00:06:51;19.02;;;16.23;;
61638;SDS011;47544;52.484;4.658;2023-05-10T00:07:01;20.52;;;16.25;;
61638;SDS011;47544;52.484;4.658;2023-05-10T00:07:12;21.80;;;17.40;;
61638;SDS011;47544;52.484;4.658;2023-05-10T00:07:23;21.80;;;17.33;;
61638;SDS011;47544;52.484;4.658;2023-05-10T00:07:34;22.15;;;17.58;;
61638;SDS011;47544;52.484;4.658;2023-05-10T00:07:45;21.75;;;18.25;;
61638;SDS011;47544;52.484;4.658;2023-05-10T00:07:56;20.77;;;18.42;;
61638;SDS011;47544;52.484;4.658;2023-05-10T00:08:07;20.63;;;18.43;;
61638;SDS011;47544;52.484;4.658;2023-05-10T00:08:18;20.98;;;17.90;;
61638;SDS011;47544;52.484;4.658;2023-05-10T00:08:30;21.90;;;17.70;;
61638;SDS011;47544;52.484;4.658;2023-05-10T00:08:42;23.00;;;18.23;;
61638;SDS011;47544;52.484;4.658;2023-05-10T00:08:53;22.50;;;18.10;;
61638;SDS011;47544;52.484;4.658;2023-05-10T00:09:04;22.80;;;17.40;;
61638;SDS011;47544;52.484;4.658;2023-05-10T00:09:14;22.92;;;17.35;;
61638;SDS011;47544;52.484;4.658;2023-05-10T00:09:27;22.08;;;16.92;;
61638;SDS011;47544;52.484;4.658;2023-05-10T00:09:37;21.45;;;16.90;;
61638;SDS011;47544;52.484;4.658;2023-05-10T00:09:48;19.98;;;17.10;;
61638;SDS011;47544;52.484;4.658;2023-05-10T00:09:59;20.90;;;17.90;;
61638;SDS011;47544;52.484;4.658;2023-05-10T00:10:10;20.58;;;17.60;;
61638;SDS011;47544;52.484;4.658;2023-05-10T00:10:22;21.08;;;17.65;;
61638;SDS011;47544;52.484;4.658;2023-05-10T00:10:33;22.88;;;17.50;;
61638;SDS011;47544;52.484;4.658;2023-05-10T00:10:44;24.00;;;17.63;;
61638;SDS011;47544;52.484;4.658;2023-05-10T00:10:55;23.85;;;17.88;;
61638;SDS011;47544;52.484;4.658;2023-05-10T00:11:06;23.33;;;18.00;;
61638;SDS011;47544;52.484;4.658;2023-05-10T00:11:20;22.27;;;17.30;;
61638;SDS011;47544;52.484;4.658;2023-05-10T00:11:31;21.20;;;17.48;;
61638;SDS011;47544;52.484;4.658;2023-05-10T00:11:43;21.98;;;18.58;;
61638;SDS011;47544;52.484;4.658;2023-05-10T00:11:54;25.33;;;20.00;;
61638;SDS011;47544;52.484;4.658;2023-05-10T00:12:05;26.90;;;20.73;;
61638;SDS011;47544;52.484;4.658;2023-05-10T00:12:16;27.15;;;20.88;;
61638;SDS011;47544;52.484;4.658;2023-05-10T00:12:26;25.42;;;20.80;;
61638;SDS011;47544;52.484;4.658;2023-05-10T00:12:37;25.20;;;20.85;;
61638;SDS011;47544;52.484;4.658;2023-05-10T00:12:48;25.33;;;20.88;;
61638;SDS011;47544;52.484;4.658;2023-05-10T00:12:59;26.80;;;20.73;;
61638;SDS011;47544;52.484;4.658;2023-05-10T00:13:10;26.83;;;20.50;;
61638;SDS011;47544;52.484;4.658;2023-05-10T00:13:21;28.48;;;20.85;;
61638;SDS011;47544;52.484;4.658;2023-05-10T00:13:33;26.70;;;20.58;;
61638;SDS011;47544;52.484;4.658;2023-05-10T00:13:44;25.00;;;20.80;;
61638;SDS011;47544;52.484;4.658;2023-05-10T00:13:55;23.13;;;19.97;;
61638;SDS011;47544;52.484;4.658;2023-05-10T00:14:05;23.10;;;19.80;;
61638;SDS011;47544;52.484;4.658;2023-05-10T00:14:16;22.38;;;18.90;;
61638;SDS011;47544;52.484;4.658;2023-05-10T00:14:27;24.95;;;19.42;;
61638;SDS011;47544;52.484;4.658;2023-05-10T00:14:38;25.73;;;19.85;;
61638;SDS011;47544;52.484;4.658;2023-05-10T00:14:49;26.42;;;20.48;;
61638;SDS011;47544;52.484;4.658;2023-05-10T00:15:01;27.05;;;20.75;;
61638;SDS011;47544;52.484;4.658;2023-05-10T00:15:13;26.10;;;20.45;;
61638;SDS011;47544;52.484;4.658;2023-05-10T00:15:24;23.88;;;19.67;;
61638;SDS011;47544;52.484;4.658;2023-05-10T00:15:35;22.38;;;19.38;;
61638;SDS011;47544;52.484;4.658;2023-05-10T00:15:46;23.87;;;19.77;;
61638;SDS011;47544;52.484;4.658;2023-05-10T00:15:56;24.55;;;20.05;;
61638;SDS011;47544;52.484;4.658;2023-05-10T00:16:07;24.17;;;20.63;;
61638;SDS011;47544;52.484;4.658;2023-05-10T00:16:18;23.95;;;20.58;;
61638;SDS011;47544;52.484;4.658;2023-05-10T00:16:29;24.13;;;20.35;;
61638;SDS011;47544;52.484;4.658;2023-05-10T00:16:40;22.98;;;19.58;;
61638;SDS011;47544;52.484;4.658;2023-05-10T00:16:52;22.48;;;19.17;;
61638;SDS011;47544;52.484;4.658;2023-05-10T00:17:03;22.65;;;19.00;;
61638;SDS011;47544;52.484;4.658;2023-05-10T00:17:14;24.48;;;19.30;;
61638;SDS011;47544;52.484;4.658;2023-05-10T00:17:25;24.73;;;19.00;;
61638;SDS011;47544;52.484;4.658;2023-05-10T00:17:35;26.33;;;18.63;;
61638;SDS011;47544;52.484;4.658;2023-05-10T00:17:46;25.40;;;18.02;;
61638;SDS011;47544;52.484;4.658;2023-05-10T00:17:57;21.45;;;16.98;;
61638;SDS011;47544;52.484;4.658;2023-05-10T00:18:08;20.48;;;16.33;;
61638;SDS011;47544;52.484;4.658;2023-05-10T00:18:20;20.33;;;15.70;;
61638;SDS011;47544;52.484;4.658;2023-05-10T00:18:31;21.92;;;16.48;;
61638;SDS011;47544;52.484;4.658;2023-05-10T00:18:42;20.80;;;16.85;;
61638;SDS011;47544;52.484;4.658;2023-05-10T00:18:53;20.27;;;17.27;;
61638;SDS011;47544;52.484;4.658;2023-05-10T00:19:03;20.00;;;17.02;;
61638;SDS011;47544;52.484;4.658;2023-05-10T00:19:14;21.15;;;17.58;;
61638;SDS011;47544;52.484;4.658;2023-05-10T00:19:25;21.55;;;17.67;;
61638;SDS011;47544;52.484;4.658;2023-05-10T00:19:36;21.80;;;17.75;;
61638;SDS011;47544;52.484;4.658;2023-05-10T00:19:48;20.67;;;17.63;;
61638;SDS011;47544;52.484;4.658;2023-05-10T00:19:59;21.58;;;17.90;;
61638;SDS011;47544;52.484;4.658;2023-05-10T00:20:11;21.30;;;17.85;;
61638;SDS011;47544;52.484;4.658;2023-05-10T00:20:22;21.70;;;18.10;;
61638;SDS011;47544;52.484;4.658;2023-05-10T00:20:33;21.85;;;18.13;;
61638;SDS011;47544;52.484;4.658;2023-05-10T00:20:44;22.33;;;18.20;;
61638;SDS011;47544;52.484;4.658;2023-05-10T00:20:56;21.88;;;17.98;;
61638;SDS011;47544;52.484;4.658;2023-05-10T00:21:07;22.13;;;17.17;;
61638;SDS011;47544;52.484;4.658;2023-05-10T00:21:19;22.02;;;16.80;;
61638;SDS011;47544;52.484;4.658;2023-05-10T00:21:30;21.45;;;16.63;;
61638;SDS011;47544;52.484;4.658;2023-05-10T00:21:42;19.63;;;16.50;;
61638;SDS011;47544;52.484;4.658;2023-05-10T00:21:53;19.92;;;16.30;;
61638;SDS011;47544;52.484;4.658;2023-05-10T00:22:03;19.77;;;16.17;;
61638;SDS011;47544;52.484;4.658;2023-05-10T00:22:14;20.27;;;16.70;;
61638;SDS011;47544;52.484;4.658;2023-05-10T00:22:25;20.33;;;17.40;;
61638;SDS011;47544;52.484;4.658;2023-05-10T00:22:36;21.45;;;18.38;;
61638;SDS011;47544;52.484;4.658;2023-05-10T00:22:48;21.95;;;18.85;;
61638;SDS011;47544;52.484;4.658;2023-05-10T00:22:59;22.17;;;18.63;;
61638;SDS011;47544;52.484;4.658;2023-05-10T00:23:10;21.10;;;17.77;;
61638;SDS011;47544;52.484;4.658;2023-05-10T00:23:21;20.67;;;17.27;;
61638;SDS011;47544;52.484;4.658;2023-05-10T00:23:32;19.70;;;17.17;;
61638;SDS011;47544;52.484;4.658;2023-05-10T00:23:44;20.67;;;17.73;;
61638;SDS011;47544;52.484;4.658;2023-05-10T00:23:55;21.73;;;18.33;;
61638;SDS011;47544;52.484;4.658;2023-05-10T00:24:07;20.88;;;17.70;;
61638;SDS011;47544;52.484;4.658;2023-05-10T00:24:18;21.92;;;17.25;;
61638;SDS011;47544;52.484;4.658;2023-05-10T00:24:30;22.08;;;17.10;;
61638;SDS011;47544;52.484;4.658;2023-05-10T00:24:41;20.55;;;16.88;;
61638;SDS011;47544;52.484;4.658;2023-05-10T00:24:52;19.05;;;16.52;;
61638;SDS011;47544;52.484;4.658;2023-05-10T00:25:03;19.20;;;16.27;;
61638;SDS011;47544;52.484;4.658;2023-05-10T00:25:14;18.88;;;15.63;;
61638;SDS011;47544;52.484;4.658;2023-05-10T00:25:25;17.92;;;15.20;;
61638;SDS011;47544;52.484;4.658;2023-05-10T00:25:36;18.17;;;15.85;;
61638;SDS011;47544;52.484;4.658;2023-05-10T00:25:46;19.10;;;16.47;;
61638;SDS011;47544;52.484;4.658;2023-05-10T00:25:57;20.23;;;16.15;;
61638;SDS011;47544;52.484;4.658;2023-05-10T00:26:09;18.63;;;14.80;;
61638;SDS011;47544;52.484;4.658;2023-05-10T00:26:22;18.73;;;15.23;;
61638;SDS011;47544;52.484;4.658;2023-05-10T00:26:33;19.55;;;16.92;;
61638;SDS011;47544;52.484;4.658;2023-05-10T00:26:44;19.58;;;16.92;;
61638;SDS011;47544;52.484;4.658;2023-05-10T00:26:55;19.10;;;16.45;;
61638;SDS011;47544;52.484;4.658;2023-05-10T00:27:06;19.02;;;16.35;;
61638;SDS011;47544;52.484;4.658;2023-05-10T00:27:17;19.33;;;16.75;;
61638;SDS011;47544;52.484;4.658;2023-05-10T00:27:29;20.17;;;16.63;;
61638;SDS011;47544;52.484;4.658;2023-05-10T00:27:40;20.15;;;16.48;;
61638;SDS011;47544;52.484;4.658;2023-05-10T00:27:51;20.08;;;16.30;;
61638;SDS011;47544;52.484;4.658;2023-05-10T00:28:02;19.05;;;15.98;;
61638;SDS011;47544;52.484;4.658;2023-05-10T00:28:13;19.95;;;16.70;;
61638;SDS011;47544;52.484;4.658;2023-05-10T00:28:24;20.73;;;17.50;;
61638;SDS011;47544;52.484;4.658;2023-05-10T00:28:35;21.05;;;17.50;;
61638;SDS011;47544;52.484;4.658;2023-05-10T00:28:46;20.73;;;16.40;;
61638;SDS011;47544;52.484;4.658;2023-05-10T00:28:58;21.33;;;15.93;;
61638;SDS011;47544;52.484;4.658;2023-05-10T00:29:09;21.50;;;16.52;;
61638;SDS011;47544;52.484;4.658;2023-05-10T00:29:20;19.55;;;16.70;;
61638;SDS011;47544;52.484;4.658;2023-05-10T00:29:31;19.38;;;16.63;;
61638;SDS011;47544;52.484;4.658;2023-05-10T00:29:42;17.55;;;15.30;;
61638;SDS011;47544;52.484;4.658;2023-05-10T00:29:53;17.25;;;15.30;;
61638;SDS011;47544;52.484;4.658;2023-05-10T00:30:04;17.55;;;15.65;;
61638;SDS011;47544;52.484;4.658;2023-05-10T00:30:15;18.27;;;16.27;;
61638;SDS011;47544;52.484;4.658;2023-05-10T00:30:28;18.20;;;15.88;;
61638;SDS011;47544;52.484;4.658;2023-05-10T00:30:39;19.65;;;16.48;;
61638;SDS011;47544;52.484;4.658;2023-05-10T00:30:50;20.13;;;16.48;;
61638;SDS011;47544;52.484;4.658;2023-05-10T00:31:03;20.02;;;16.92;;
61638;SDS011;47544;52.484;4.658;2023-05-10T00:31:14;20.50;;;17.65;;
61638;SDS011;47544;52.484;4.658;2023-05-10T00:31:25;20.10;;;17.80;;
61638;SDS011;47544;52.484;4.658;2023-05-10T00:31:36;20.45;;;17.83;;
61638;SDS011;47544;52.484;4.658;2023-05-10T00:31:48;19.92;;;17.70;;
61638;SDS011;47544;52.484;4.658;2023-05-10T00:31:59;20.10;;;17.35;;
61638;SDS011;47544;52.484;4.658;2023-05-10T00:32:10;21.63;;;17.52;;
61638;SDS011;47544;52.484;4.658;2023-05-10T00:32:21;21.52;;;17.33;;
61638;SDS011;47544;52.484;4.658;2023-05-10T00:32:32;20.73;;;17.67;;
61638;SDS011;47544;52.484;4.658;2023-05-10T00:32:43;21.90;;;18.08;;
61638;SDS011;47544;52.484;4.658;2023-05-10T00:32:55;21.67;;;18.17;;
61638;SDS011;47544;52.484;4.658;2023-05-10T00:33:06;20.45;;;17.42;;
61638;SDS011;47544;52.484;4.658;2023-05-10T00:33:18;20.13;;;17.27;;
61638;SDS011;47544;52.484;4.658;2023-05-10T00:33:29;21.42;;;17.30;;
61638;SDS011;47544;52.484;4.658;2023-05-10T00:33:40;21.10;;;17.52;;
61638;SDS011;47544;52.484;4.658;2023-05-10T00:33:51;19.80;;;17.17;;
61638;SDS011;47544;52.484;4.658;2023-05-10T00:34:01;20.05;;;17.38;;
61638;SDS011;47544;52.484;4.658;2023-05-10T00:34:12;20.70;;;17.30;;
61638;SDS011;47544;52.484;4.658;2023-05-10T00:34:23;21.30;;;17.63;;
61638;SDS011;47544;52.484;4.658;2023-05-10T00:34:35;22.55;;;18.02;;
61638;SDS011;47544;52.484;4.658;2023-05-10T00:34:46;22.25;;;18.85;;
61638;SDS011;47544;52.484;4.658;2023-05-10T00:34:58;22.30;;;18.45;;
61638;SDS011;47544;52.484;4.658;2023-05-10T00:35:09;20.48;;;17.73;;
61638;SDS011;47544;52.484;4.658;2023-05-10T00:35:20;20.38;;;17.30;;
61638;SDS011;47544;52.484;4.658;2023-05-10T00:35:32;20.95;;;17.65;;
61638;SDS011;47544;52.484;4.658;2023-05-10T00:35:43;21.10;;;18.20;;
61638;SDS011;47544;52.484;4.658;2023-05-10T00:35:53;20.73;;;18.10;;
61638;SDS011;47544;52.484;4.658;2023-05-10T00:36:05;20.87;;;18.43;;
61638;SDS011;47544;52.484;4.658;2023-05-10T00:36:18;23.55;;;18.60;;
61638;SDS011;47544;52.484;4.658;2023-05-10T00:36:30;23.33;;;18.63;;
61638;SDS011;47544;52.484;4.658;2023-05-10T00:36:41;24.05;;;18.95;;
61638;SDS011;47544;52.484;4.658;2023-05-10T00:36:52;23.25;;;19.13;;
61638;SDS011;47544;52.484;4.658;2023-05-10T00:37:03;24.50;;;18.92;;
61638;SDS011;47544;52.484;4.658;2023-05-10T00:37:14;24.33;;;18.77;;
61638;SDS011;47544;52.484;4.658;2023-05-10T00:37:25;24.30;;;18.85;;
61638;SDS011;47544;52.484;4.658;2023-05-10T00:37:36;23.35;;;19.13;;
61638;SDS011;47544;52.484;4.658;2023-05-10T00:37:48;21.30;;;18.50;;
61638;SDS011;47544;52.484;4.658;2023-05-10T00:37:59;21.05;;;18.33;;
61638;SDS011;47544;52.484;4.658;2023-05-10T00:38:09;21.42;;;17.83;;
61638;SDS011;47544;52.484;4.658;2023-05-10T00:38:20;22.93;;;17.73;;
61638;SDS011;47544;52.484;4.658;2023-05-10T00:38:31;22.80;;;17.92;;
61638;SDS011;47544;52.484;4.658;2023-05-10T00:38:42;24.55;;;18.70;;
61638;SDS011;47544;52.484;4.658;2023-05-10T00:38:54;23.98;;;19.20;;
61638;SDS011;47544;52.484;4.658;2023-05-10T00:39:05;23.70;;;19.10;;
61638;SDS011;47544;52.484;4.658;2023-05-10T00:39:18;24.70;;;18.98;;
61638;SDS011;47544;52.484;4.658;2023-05-10T00:39:29;24.40;;;18.65;;
61638;SDS011;47544;52.484;4.658;2023-05-10T00:39:40;23.77;;;18.80;;
61638;SDS011;47544;52.484;4.658;2023-05-10T00:39:52;22.58;;;19.60;;
61638;SDS011;47544;52.484;4.658;2023-05-10T00:40:03;23.38;;;19.77;;
61638;SDS011;47544;52.484;4.658;2023-05-10T00:40:15;24.10;;;19.08;;
61638;SDS011;47544;52.484;4.658;2023-05-10T00:40:26;22.85;;;17.88;;
61638;SDS011;47544;52.484;4.658;2023-05-10T00:40:37;21.67;;;17.13;;
61638;SDS011;47544;52.484;4.658;2023-05-10T00:40:49;21.55;;;17.65;;
61638;SDS011;47544;52.484;4.658;2023-05-10T00:41:00;20.63;;;17.85;;
61638;SDS011;47544;52.484;4.658;2023-05-10T00:41:11;20.60;;;17.05;;
61638;SDS011;47544;52.484;4.658;2023-05-10T00:41:22;19.40;;;16.10;;
61638;SDS011;47544;52.484;4.658;2023-05-10T00:41:33;20.75;;;16.83;;
61638;SDS011;47544;52.484;4.658;2023-05-10T00:41:44;23.35;;;18.02;;
61638;SDS011;47544;52.484;4.658;2023-05-10T00:41:55;23.08;;;18.00;;
61638;SDS011;47544;52.484;4.658;2023-05-10T00:42:06;22.70;;;18.23;;
61638;SDS011;47544;52.484;4.658;2023-05-10T00:42:18;21.38;;;18.73;;
61638;SDS011;47544;52.484;4.658;2023-05-10T00:42:29;22.38;;;19.23;;
61638;SDS011;47544;52.484;4.658;2023-05-10T00:42:40;21.70;;;19.00;;
61638;SDS011;47544;52.484;4.658;2023-05-10T00:42:51;19.73;;;17.58;;
61638;SDS011;47544;52.484;4.658;2023-05-10T00:43:02;17.98;;;15.98;;
61638;SDS011;47544;52.484;4.658;2023-05-10T00:43:13;17.80;;;15.55;;
61638;SDS011;47544;52.484;4.658;2023-05-10T00:43:24;20.25;;;16.67;;
61638;SDS011;47544;52.484;4.658;2023-05-10T00:43:35;21.92;;;16.90;;
61638;SDS011;47544;52.484;4.658;2023-05-10T00:43:49;22.15;;;15.82;;
61638;SDS011;47544;52.484;4.658;2023-05-10T00:44:00;18.50;;;14.57;;
61638;SDS011;47544;52.484;4.658;2023-05-10T00:44:12;19.13;;;14.45;;
61638;SDS011;47544;52.484;4.658;2023-05-10T00:44:23;20.15;;;14.48;;
61638;SDS011;47544;52.484;4.658;2023-05-10T00:44:34;21.27;;;16.02;;
61638;SDS011;47544;52.484;4.658;2023-05-10T00:44:45;21.65;;;17.10;;
61638;SDS011;47544;52.484;4.658;2023-05-10T00:44:57;21.67;;;17.63;;
61638;SDS011;47544;52.484;4.658;2023-05-10T00:45:08;22.63;;;17.50;;
61638;SDS011;47544;52.484;4.658;2023-05-10T00:45:19;21.27;;;16.67;;
61638;SDS011;47544;52.484;4.658;2023-05-10T00:45:31;20.35;;;15.32;;
61638;SDS011;47544;52.484;4.658;2023-05-10T00:45:43;17.08;;;13.55;;
61638;SDS011;47544;52.484;4.658;2023-05-10T00:45:54;18.33;;;14.38;;
61638;SDS011;47544;52.484;4.658;2023-05-10T00:46:05;17.70;;;14.10;;
61638;SDS011;47544;52.484;4.658;2023-05-10T00:46:16;19.15;;;14.63;;
61638;SDS011;47544;52.484;4.658;2023-05-10T00:46:29;17.35;;;13.98;;
61638;SDS011;47544;52.484;4.658;2023-05-10T00:46:43;16.77;;;14.27;;
61638;SDS011;47544;52.484;4.658;2023-05-10T00:46:54;18.67;;;15.13;;
61638;SDS011;47544;52.484;4.658;2023-05-10T00:47:05;19.08;;;14.88;;
61638;SDS011;47544;52.484;4.658;2023-05-10T00:47:16;19.65;;;15.30;;
61638;SDS011;47544;52.484;4.658;2023-05-10T00:47:27;18.98;;;15.48;;
61638;SDS011;47544;52.484;4.658;2023-05-10T00:47:38;18.85;;;15.68;;
61638;SDS011;47544;52.484;4.658;2023-05-10T00:47:50;17.88;;;14.32;;
61638;SDS011;47544;52.484;4.658;2023-05-10T00:48:02;19.15;;;14.73;;
61638;SDS011;47544;52.484;4.658;2023-05-10T00:48:14;18.70;;;14.80;;
61638;SDS011;47544;52.484;4.658;2023-05-10T00:48:25;18.85;;;14.50;;
61638;SDS011;47544;52.484;4.658;2023-05-10T00:48:36;18.33;;;13.90;;
61638;SDS011;47544;52.484;4.658;2023-05-10T00:48:47;16.60;;;13.32;;
61638;SDS011;47544;52.484;4.658;2023-05-10T00:48:59;16.10;;;12.43;;
61638;SDS011;47544;52.484;4.658;2023-05-10T00:49:10;15.25;;;11.57;;
61638;SDS011;47544;52.484;4.658;2023-05-10T00:49:21;16.65;;;12.27;;
61638;SDS011;47544;52.484;4.658;2023-05-10T00:49:33;16.20;;;13.23;;
61638;SDS011;47544;52.484;4.658;2023-05-10T00:49:44;17.73;;;14.18;;
61638;SDS011;47544;52.484;4.658;2023-05-10T00:49:56;18.30;;;15.00;;
61638;SDS011;47544;52.484;4.658;2023-05-10T00:50:07;18.02;;;15.98;;
61638;SDS011;47544;52.484;4.658;2023-05-10T00:50:19;18.90;;;16.42;;
61638;SDS011;47544;52.484;4.658;2023-05-10T00:50:30;19.25;;;16.23;;
61638;SDS011;47544;52.484;4.658;2023-05-10T00:50:41;19.15;;;15.68;;
61638;SDS011;47544;52.484;4.658;2023-05-10T00:50:53;17.15;;;14.57;;
61638;SDS011;47544;52.484;4.658;2023-05-10T00:51:04;16.08;;;14.35;;
61638;SDS011;47544;52.484;4.658;2023-05-10T00:51:15;15.40;;;13.63;;
61638;SDS011;47544;52.484;4.658;2023-05-10T00:51:26;14.18;;;12.68;;
61638;SDS011;47544;52.484;4.658;2023-05-10T00:51:37;14.70;;;13.10;;
61638;SDS011;47544;52.484;4.658;2023-05-10T00:51:48;14.95;;;13.35;;
61638;SDS011;47544;52.484;4.658;2023-05-10T00:52:01;15.40;;;13.50;;
61638;SDS011;47544;52.484;4.658;2023-05-10T00:52:13;15.80;;;12.60;;
61638;SDS011;47544;52.484;4.658;2023-05-10T00:52:24;17.88;;;12.77;;
61638;SDS011;47544;52.484;4.658;2023-05-10T00:52:36;17.75;;;12.98;;
61638;SDS011;47544;52.484;4.658;2023-05-10T00:52:47;16.67;;;13.43;;
61638;SDS011;47544;52.484;4.658;2023-05-10T00:52:58;16.08;;;13.77;;
61638;SDS011;47544;52.484;4.658;2023-05-10T00:53:09;15.02;;;12.63;;
61638;SDS011;47544;52.484;4.658;2023-05-10T00:53:20;14.90;;;11.85;;
61638;SDS011;47544;52.484;4.658;2023-05-10T00:53:31;16.08;;;12.73;;
61638;SDS011;47544;52.484;4.658;2023-05-10T00:53:43;17.13;;;13.27;;
61638;SDS011;47544;52.484;4.658;2023-05-10T00:53:56;17.75;;;13.25;;
61638;SDS011;47544;52.484;4.658;2023-05-10T00:54:07;16.63;;;12.70;;
61638;SDS011;47544;52.484;4.658;2023-05-10T00:54:18;16.88;;;12.65;;
61638;SDS011;47544;52.484;4.658;2023-05-10T00:54:29;15.55;;;12.05;;
61638;SDS011;47544;52.484;4.658;2023-05-10T00:54:40;15.82;;;11.85;;
61638;SDS011;47544;52.484;4.658;2023-05-10T00:54:52;15.77;;;11.35;;
61638;SDS011;47544;52.484;4.658;2023-05-10T00:55:03;15.70;;;10.93;;
61638;SDS011;47544;52.484;4.658;2023-05-10T00:55:14;15.85;;;10.77;;
61638;SDS011;47544;52.484;4.658;2023-05-10T00:55:26;17.42;;;12.85;;
61638;SDS011;47544;52.484;4.658;2023-05-10T00:55:37;17.95;;;14.20;;
61638;SDS011;47544;52.484;4.658;2023-05-10T00:55:48;19.10;;;14.40;;
61638;SDS011;47544;52.484;4.658;2023-05-10T00:55:59;17.65;;;13.63;;
61638;SDS011;47544;52.484;4.658;2023-05-10T00:56:10;17.35;;;13.57;;
61638;SDS011;47544;52.484;4.658;2023-05-10T00:56:21;18.73;;;13.57;;
61638;SDS011;47544;52.484;4.658;2023-05-10T00:56:33;19.77;;;13.57;;
61638;SDS011;47544;52.484;4.658;2023-05-10T00:56:45;20.33;;;13.98;;
61638;SDS011;47544;52.484;4.658;2023-05-10T00:57:01;17.13;;;11.70;;
61638;SDS011;47544;52.484;4.658;2023-05-10T00:57:12;15.90;;;11.25;;
61638;SDS011;47544;52.484;4.658;2023-05-10T00:57:23;16.10;;;12.05;;
61638;SDS011;47544;52.484;4.658;2023-05-10T00:57:34;17.33;;;12.95;;
61638;SDS011;47544;52.484;4.658;2023-05-10T00:57:44;18.05;;;13.48;;
61638;SDS011;47544;52.484;4.658;2023-05-10T00:57:56;18.73;;;14.43;;
61638;SDS011;47544;52.484;4.658;2023-05-10T00:58:07;18.80;;;14.27;;
61638;SDS011;47544;52.484;4.658;2023-05-10T00:58:19;18.27;;;13.30;;
61638;SDS011;47544;52.484;4.658;2023-05-10T00:58:30;17.73;;;12.27;;
61638;SDS011;47544;52.484;4.658;2023-05-10T00:58:41;18.00;;;12.00;;
61638;SDS011;47544;52.484;4.658;2023-05-10T00:58:52;18.73;;;12.88;;
61638;SDS011;47544;52.484;4.658;2023-05-10T00:59:03;19.53;;;13.53;;
61638;SDS011;47544;52.484;4.658;2023-05-10T00:59:14;19.52;;;14.50;;
61638;SDS011;47544;52.484;4.658;2023-05-10T00:59:25;20.13;;;13.90;;
61638;SDS011;47544;52.484;4.658;2023-05-10T00:59:36;19.13;;;13.15;;
61638;SDS011;47544;52.484;4.658;2023-05-10T00:59:47;18.52;;;12.20;;
61638;SDS011;47544;52.484;4.658;2023-05-10T00:59:58;19.98;;;12.68;;
61638;SDS011;47544;52.484;4.658;2023-05-10T01:00:11;21.10;;;12.80;;
61638;SDS011;47544;52.484;4.658;2023-05-10T01:00:22;21.52;;;13.25;;
61638;SDS011;47544;52.484;4.658;2023-05-10T01:00:33;21.20;;;13.40;;
61638;SDS011;47544;52.484;4.658;2023-05-10T01:00:44;19.60;;;12.80;;
61638;SDS011;47544;52.484;4.658;2023-05-10T01:00:56;18.90;;;11.75;;
61638;SDS011;47544;52.484;4.658;2023-05-10T01:01:08;19.25;;;11.55;;
61638;SDS011;47544;52.484;4.658;2023-05-10T01:01:19;21.95;;;12.23;;
61638;SDS011;47544;52.484;4.658;2023-05-10T01:01:31;21.98;;;12.50;;
61638;SDS011;47544;52.484;4.658;2023-05-10T01:01:42;20.60;;;12.23;;
61638;SDS011;47544;52.484;4.658;2023-05-10T01:01:53;18.20;;;11.85;;
61638;SDS011;47544;52.484;4.658;2023-05-10T01:02:04;17.87;;;12.33;;
61638;SDS011;47544;52.484;4.658;2023-05-10T01:02:16;19.80;;;13.48;;
61638;SDS011;47544;52.484;4.658;2023-05-10T01:02:26;20.40;;;13.98;;
61638;SDS011;47544;52.484;4.658;2023-05-10T01:02:38;20.45;;;13.90;;
61638;SDS011;47544;52.484;4.658;2023-05-10T01:02:50;22.75;;;13.85;;
61638;SDS011;47544;52.484;4.658;2023-05-10T01:03:01;24.17;;;14.45;;
61638;SDS011;47544;52.484;4.658;2023-05-10T01:03:13;22.08;;;15.30;;
61638;SDS011;47544;52.484;4.658;2023-05-10T01:03:24;21.33;;;15.20;;
61638;SDS011;47544;52.484;4.658;2023-05-10T01:03:35;21.67;;;14.48;;
61638;SDS011;47544;52.484;4.658;2023-05-10T01:03:46;21.15;;;13.70;;
61638;SDS011;47544;52.484;4.658;2023-05-10T01:03:57;21.35;;;13.25;;
61638;SDS011;47544;52.484;4.658;2023-05-10T01:04:08;23.35;;;12.77;;
61638;SDS011;47544;52.484;4.658;2023-05-10T01:04:20;24.13;;;12.93;;
61638;SDS011;47544;52.484;4.658;2023-05-10T01:04:35;23.40;;;13.45;;
61638;SDS011;47544;52.484;4.658;2023-05-10T01:04:47;24.63;;;12.90;;
61638;SDS011;47544;52.484;4.658;2023-05-10T01:04:59;24.65;;;11.82;;
61638;SDS011;47544;52.484;4.658;2023-05-10T01:05:10;24.70;;;12.48;;
61638;SDS011;47544;52.484;4.658;2023-05-10T01:05:24;23.98;;;13.70;;
61638;SDS011;47544;52.484;4.658;2023-05-10T01:05:35;23.13;;;14.18;;
61638;SDS011;47544;52.484;4.658;2023-05-10T01:05:46;24.83;;;14.05;;
61638;SDS011;47544;52.484;4.658;2023-05-10T01:05:57;25.35;;;13.65;;